createdAt,value
2022-10-09T00:01:27.557Z,12.93
2022-10-09T00:03:56.606Z,12.84
2022-10-09T00:06:26.264Z,12.91
2022-10-09T00:08:53.571Z,12.72
2022-10-09T00:11:26.035Z,12.74
2022-10-09T00:13:53.777Z,12.71
2022-10-09T00:16:22.038Z,12.71
2022-10-09T00:18:49.319Z,12.58
2022-10-09T00:21:24.818Z,12.55
2022-10-09T00:23:53.669Z,12.73
2022-10-09T00:26:20.743Z,12.67
2022-10-09T00:28:48.258Z,12.58
2022-10-09T00:31:15.794Z,12.60
2022-10-09T00:33:42.922Z,12.62
2022-10-09T00:36:19.448Z,12.51
2022-10-09T00:38:46.564Z,12.34
2022-10-09T00:41:17.417Z,12.38
2022-10-09T00:43:51.532Z,12.54
2022-10-09T00:46:34.474Z,12.39
2022-10-09T00:49:26.760Z,12.52
2022-10-09T00:51:58.494Z,12.38
2022-10-09T00:54:28.288Z,12.37
2022-10-09T00:56:55.362Z,12.39
2022-10-09T00:59:22.960Z,12.39
2022-10-09T01:01:49.759Z,12.44
2022-10-09T01:04:16.455Z,12.56
2022-10-09T01:06:49.550Z,12.52
2022-10-09T01:09:32.210Z,12.35
2022-10-09T01:12:00.615Z,12.27
2022-10-09T01:14:31.819Z,12.24
2022-10-09T01:17:11.573Z,12.22
2022-10-09T01:20:04.282Z,12.26
2022-10-09T01:22:57.855Z,12.32
2022-10-09T01:25:44.805Z,12.35
2022-10-09T01:28:14.459Z,12.32
2022-10-09T01:30:41.665Z,12.30
2022-10-09T01:33:10.222Z,12.28
2022-10-09T01:35:37.763Z,12.16
2022-10-09T01:38:05.994Z,12.26
2022-10-09T01:40:32.892Z,12.10
2022-10-09T01:42:59.513Z,12.19
2022-10-09T01:45:42.466Z,12.05
2022-10-09T01:48:16.460Z,12.04
2022-10-09T01:50:51.626Z,12.02
2022-10-09T01:53:19.796Z,12.11
2022-10-09T01:55:51.264Z,11.99
2022-10-09T01:58:28.432Z,11.93
2022-10-09T02:01:18.598Z,11.93
2022-10-09T02:03:48.798Z,11.79
2022-10-09T02:06:17.610Z,11.72
2022-10-09T02:08:47.066Z,11.77
2022-10-09T02:11:15.114Z,11.77
2022-10-09T02:13:43.614Z,11.68
2022-10-09T02:16:37.371Z,11.64
2022-10-09T02:19:25.586Z,11.67
2022-10-09T02:21:59.389Z,11.65
2022-10-09T02:24:26.904Z,11.80
2022-10-09T02:26:57.373Z,11.66
2022-10-09T02:29:24.870Z,11.67
2022-10-09T02:31:54.845Z,11.54
2022-10-09T02:34:22.135Z,11.55
2022-10-09T02:36:49.188Z,11.47
2022-10-09T02:39:16.010Z,11.55
2022-10-09T02:41:43.296Z,11.69
2022-10-09T02:44:10.334Z,11.53
2022-10-09T02:46:38.447Z,11.57
2022-10-09T02:49:07.263Z,11.72
2022-10-09T02:51:33.982Z,11.54
2022-10-09T02:54:01.046Z,11.41
2022-10-09T02:56:28.703Z,11.51
2022-10-09T02:58:55.861Z,11.60
2022-10-09T03:01:23.310Z,11.60
2022-10-09T03:03:51.094Z,11.39
2022-10-09T03:06:28.622Z,11.38
2022-10-09T03:08:58.566Z,11.27
2022-10-09T03:11:26.140Z,11.14
2022-10-09T03:13:54.374Z,11.23
2022-10-09T03:16:23.898Z,11.17
2022-10-09T03:18:51.838Z,11.11
2022-10-09T03:21:21.044Z,10.93
2022-10-09T03:23:48.226Z,11.07
2022-10-09T03:26:18.197Z,11.12
2022-10-09T03:28:48.030Z,11.12
2022-10-09T03:31:39.758Z,11.00
2022-10-09T03:34:05.778Z,10.88
2022-10-09T03:36:32.436Z,10.91
2022-10-09T03:38:59.106Z,11.04
2022-10-09T03:41:25.661Z,10.89
2022-10-09T03:43:52.304Z,10.69
2022-10-09T03:46:20.507Z,10.72
2022-10-09T03:48:47.369Z,10.78
2022-10-09T03:51:13.945Z,10.61
2022-10-09T03:53:40.592Z,10.51
2022-10-09T03:56:07.286Z,10.62
2022-10-09T03:58:33.913Z,10.62
2022-10-09T04:01:00.669Z,10.60
2022-10-09T04:03:27.508Z,10.62
2022-10-09T04:05:54.124Z,10.56
2022-10-09T04:08:21.221Z,10.60
2022-10-09T04:10:48.198Z,10.55
2022-10-09T04:13:17.399Z,10.49
2022-10-09T04:15:50.816Z,10.55
2022-10-09T04:18:18.277Z,10.60
2022-10-09T04:20:51.222Z,10.48
2022-10-09T04:23:19.087Z,10.46
2022-10-09T04:25:46.166Z,10.42
2022-10-09T04:28:13.040Z,10.38
2022-10-09T04:30:39.760Z,10.62
2022-10-09T04:33:11.840Z,10.37
2022-10-09T04:35:46.750Z,10.44
2022-10-09T04:38:13.378Z,10.34
2022-10-09T04:40:40.508Z,10.43
2022-10-09T04:43:07.164Z,10.37
2022-10-09T04:45:33.897Z,10.36
2022-10-09T04:48:00.566Z,10.41
2022-10-09T04:50:27.197Z,10.30
2022-10-09T04:52:59.957Z,10.25
2022-10-09T04:55:26.608Z,10.14
2022-10-09T04:57:53.271Z,10.12
2022-10-09T05:00:19.841Z,10.18
2022-10-09T05:02:46.867Z,10.22
2022-10-09T05:05:14.292Z,10.21
2022-10-09T05:07:40.938Z,10.16
2022-10-09T05:10:08.283Z,10.08
2022-10-09T05:12:37.701Z,10.14
2022-10-09T05:15:06.189Z,10.26
2022-10-09T05:17:32.831Z,10.27
2022-10-09T05:20:00.841Z,10.10
2022-10-09T05:22:27.498Z,10.19
2022-10-09T05:24:54.089Z,10.12
2022-10-09T05:27:23.605Z,10.08
2022-10-09T05:29:50.195Z,10.23
2022-10-09T05:32:16.967Z,10.11
2022-10-09T05:34:45.604Z,10.10
2022-10-09T05:37:12.506Z,10.02
2022-10-09T05:39:39.457Z,10.04
2022-10-09T05:42:06.116Z,9.99
2022-10-09T05:44:32.819Z,10.03
2022-10-09T05:46:59.366Z,9.94
2022-10-09T05:49:26.005Z,9.94
2022-10-09T05:51:54.009Z,9.98
2022-10-09T05:54:20.616Z,10.13
2022-10-09T05:56:47.390Z,10.08
2022-10-09T05:59:19.366Z,9.90
2022-10-09T06:01:49.196Z,9.96
2022-10-09T06:04:24.898Z,9.97
2022-10-09T06:06:51.701Z,9.88
2022-10-09T06:09:25.374Z,9.78
2022-10-09T06:11:53.516Z,9.97
2022-10-09T06:14:22.634Z,9.79
2022-10-09T06:16:50.064Z,9.95
2022-10-09T06:19:18.146Z,9.90
2022-10-09T06:21:45.326Z,10.07
2022-10-09T06:24:28.306Z,10.09
2022-10-09T06:27:01.769Z,10.29
2022-10-09T06:29:29.990Z,10.30
2022-10-09T06:31:56.941Z,10.30
2022-10-09T06:34:24.505Z,10.34
2022-10-09T06:36:51.093Z,10.38
2022-10-09T06:39:19.437Z,10.54
2022-10-09T06:41:46.106Z,10.54
2022-10-09T06:44:39.687Z,10.62
2022-10-09T06:47:06.340Z,10.65
2022-10-09T06:49:32.953Z,10.86
2022-10-09T06:52:01.929Z,11.04
2022-10-09T06:54:28.618Z,11.09
2022-10-09T06:56:58.030Z,11.07
2022-10-09T06:59:24.873Z,11.13
2022-10-09T07:01:51.581Z,11.34
2022-10-09T07:04:18.703Z,11.34
2022-10-09T07:06:47.664Z,11.31
2022-10-09T07:09:15.548Z,11.63
2022-10-09T07:11:45.114Z,11.66
2022-10-09T07:14:13.981Z,11.58
2022-10-09T07:16:43.035Z,11.80
2022-10-09T07:19:11.718Z,11.97
2022-10-09T07:21:40.396Z,12.19
2022-10-09T07:24:08.063Z,12.03
2022-10-09T07:26:37.824Z,12.16
2022-10-09T07:29:07.585Z,12.29
2022-10-09T07:31:34.365Z,12.31
2022-10-09T07:34:01.225Z,12.26
2022-10-09T07:36:28.018Z,12.61
2022-10-09T07:38:56.698Z,12.63
2022-10-09T07:41:26.086Z,12.76
2022-10-09T07:43:54.572Z,12.80
2022-10-09T07:46:22.723Z,13.10
2022-10-09T07:48:50.935Z,12.96
2022-10-09T07:51:20.016Z,13.07
2022-10-09T07:53:47.668Z,13.56
2022-10-09T07:56:22.647Z,13.91
2022-10-09T07:58:53.955Z,13.66
2022-10-09T08:01:21.511Z,13.51
2022-10-09T08:03:49.348Z,13.53
2022-10-09T08:06:18.128Z,13.43
2022-10-09T08:08:45.538Z,13.42
2022-10-09T08:11:15.145Z,13.66
2022-10-09T08:13:43.371Z,13.63
2022-10-09T08:16:10.846Z,13.67
2022-10-09T08:18:38.267Z,13.80
2022-10-09T08:21:08.454Z,14.08
2022-10-09T08:23:36.011Z,13.97
2022-10-09T08:26:03.644Z,14.28
2022-10-09T08:28:31.043Z,14.34
2022-10-09T08:30:57.756Z,14.34
2022-10-09T08:33:25.834Z,14.45
2022-10-09T08:35:53.215Z,14.68
2022-10-09T08:38:45.426Z,14.97
2022-10-09T08:41:39.053Z,15.05
2022-10-09T08:44:22.393Z,15.27
2022-10-09T08:47:00.957Z,15.60
2022-10-09T08:49:55.118Z,15.81
2022-10-09T08:52:28.992Z,17.18
2022-10-09T08:55:00.393Z,18.00
2022-10-09T08:57:32.125Z,18.43
2022-10-09T08:59:58.752Z,19.10
2022-10-09T09:02:59.934Z,20.36
2022-10-09T09:05:57.640Z,20.03
2022-10-09T09:08:33.373Z,20.08
2022-10-09T09:11:27.763Z,19.89
2022-10-09T09:14:11.759Z,19.84
2022-10-09T09:16:58.048Z,19.54
2022-10-09T09:19:45.170Z,18.45
2022-10-09T09:22:14.006Z,18.03
2022-10-09T09:24:44.053Z,17.69
2022-10-09T09:27:14.120Z,17.66
2022-10-09T09:29:45.578Z,17.55
2022-10-09T09:32:19.602Z,17.52
2022-10-09T09:34:47.087Z,17.56
2022-10-09T09:37:13.944Z,17.24
2022-10-09T09:40:31.296Z,17.44
2022-10-09T09:42:30.336Z,17.24
2022-10-09T09:45:02.031Z,17.30
2022-10-09T09:47:35.988Z,17.38
2022-10-09T09:50:05.444Z,17.29
2022-10-09T09:52:37.365Z,17.12
2022-10-09T09:55:05.138Z,16.93
2022-10-09T09:57:36.276Z,17.20
2022-10-09T10:00:16.863Z,17.44
2022-10-09T10:02:43.501Z,17.64
2022-10-09T10:05:25.805Z,17.70
2022-10-09T10:07:52.967Z,17.66
2022-10-09T10:10:25.662Z,17.86
2022-10-09T10:12:55.141Z,18.03
2022-10-09T10:15:28.388Z,18.02
2022-10-09T10:18:02.200Z,18.07
2022-10-09T10:20:32.163Z,18.13
2022-10-09T10:23:00.412Z,17.97
2022-10-09T10:25:33.479Z,17.96
2022-10-09T10:28:15.186Z,18.00
2022-10-09T10:30:42.569Z,18.09
2022-10-09T10:33:26.447Z,18.00
2022-10-09T10:35:55.818Z,17.95
2022-10-09T10:38:47.572Z,17.91
2022-10-09T10:41:22.835Z,18.05
2022-10-09T10:43:54.598Z,18.12
2022-10-09T10:46:53.621Z,17.95
2022-10-09T10:49:22.205Z,18.25
2022-10-09T10:52:00.111Z,18.27
2022-10-09T10:54:40.494Z,18.25
2022-10-09T10:57:16.224Z,18.27
2022-10-09T11:00:06.773Z,18.31
2022-10-09T11:02:53.731Z,18.23
2022-10-09T11:05:25.299Z,18.31
2022-10-09T11:08:26.214Z,18.20
2022-10-09T11:11:14.124Z,18.15
2022-10-09T11:14:03.678Z,18.20
2022-10-09T11:16:44.280Z,18.02
2022-10-09T11:19:20.905Z,17.96
2022-10-09T11:22:07.213Z,17.90
2022-10-09T11:24:43.129Z,17.85
2022-10-09T11:27:16.151Z,18.05
2022-10-09T11:29:53.214Z,18.04
2022-10-09T11:32:47.539Z,18.02
2022-10-09T11:35:25.768Z,17.97
2022-10-09T11:38:08.234Z,17.87
2022-10-09T11:40:42.363Z,17.94
2022-10-09T11:43:28.516Z,17.99
2022-10-09T11:46:09.750Z,17.98
2022-10-09T11:48:51.406Z,17.85
2022-10-09T11:51:30.149Z,17.85
2022-10-09T11:53:57.941Z,17.78
2022-10-09T11:56:30.017Z,17.86
2022-10-09T11:59:01.856Z,17.91
2022-10-09T12:01:38.292Z,17.72
2022-10-09T12:04:09.808Z,17.65
2022-10-09T12:06:53.188Z,17.54
2022-10-09T12:09:37.527Z,17.52
2022-10-09T12:12:09.013Z,17.40
2022-10-09T12:14:38.547Z,17.67
2022-10-09T12:17:25.628Z,17.66
2022-10-09T12:20:00.175Z,17.64
2022-10-09T12:22:35.637Z,17.66
2022-10-09T12:25:07.674Z,17.51
2022-10-09T12:27:38.703Z,17.44
2022-10-09T12:30:12.419Z,17.49
2022-10-09T12:32:48.342Z,17.56
2022-10-09T12:35:29.251Z,17.53
2022-10-09T12:37:55.965Z,17.52
2022-10-09T12:40:25.517Z,17.54
2022-10-09T12:42:53.879Z,17.40
2022-10-09T12:45:24.008Z,17.42
2022-10-09T12:47:52.495Z,17.47
2022-10-09T12:50:31.135Z,17.37
2022-10-09T12:53:04.205Z,17.37
2022-10-09T12:55:34.479Z,17.48
2022-10-09T12:58:23.378Z,17.47
2022-10-09T13:00:53.090Z,17.42
2022-10-09T13:03:54.137Z,17.38
2022-10-09T13:06:24.761Z,17.51
2022-10-09T13:08:58.597Z,17.62
2022-10-09T13:11:33.917Z,17.54
2022-10-09T13:14:01.389Z,17.72
2022-10-09T13:16:43.786Z,17.70
2022-10-09T13:19:50.384Z,17.67
2022-10-09T13:22:24.146Z,17.71
2022-10-09T13:24:53.595Z,17.70
2022-10-09T13:27:23.730Z,17.75
2022-10-09T13:29:50.396Z,17.69
2022-10-09T13:32:17.967Z,17.62
2022-10-09T13:34:45.496Z,17.79
2022-10-09T13:37:17.858Z,17.78
2022-10-09T13:39:44.499Z,17.75
2022-10-09T13:42:15.344Z,17.98
2022-10-09T13:44:42.288Z,18.12
2022-10-09T13:47:09.400Z,18.19
2022-10-09T13:49:36.084Z,18.24
2022-10-09T13:52:02.778Z,18.29
2022-10-09T13:54:29.332Z,18.17
2022-10-09T13:56:56.065Z,18.24
2022-10-09T13:59:24.428Z,18.44
2022-10-09T14:01:54.485Z,18.55
2022-10-09T14:04:21.133Z,18.50
2022-10-09T14:06:47.789Z,18.50
2022-10-09T14:09:15.120Z,18.60
2022-10-09T14:11:42.323Z,18.65
2022-10-09T14:14:09.080Z,18.77
2022-10-09T14:16:35.789Z,18.82
2022-10-09T14:19:04.170Z,18.86
2022-10-09T14:21:31.193Z,18.91
2022-10-09T14:24:00.619Z,19.12
2022-10-09T14:26:28.328Z,19.14
2022-10-09T14:28:59.906Z,19.08
2022-10-09T14:31:26.790Z,19.31
2022-10-09T14:33:57.777Z,19.37
2022-10-09T14:36:24.544Z,19.64
2022-10-09T14:38:51.984Z,19.72
2022-10-09T14:41:19.857Z,19.86
2022-10-09T14:43:47.694Z,19.95
2022-10-09T14:46:18.012Z,20.07
2022-10-09T14:48:45.963Z,19.91
2022-10-09T14:51:15.388Z,20.04
2022-10-09T14:53:42.364Z,20.16
2022-10-09T14:56:12.837Z,20.31
2022-10-09T14:58:41.490Z,20.35
2022-10-09T15:01:12.224Z,20.24
2022-10-09T15:03:39.462Z,19.90
2022-10-09T15:06:09.007Z,19.47
2022-10-09T15:08:37.759Z,19.28
2022-10-09T15:11:04.929Z,18.84
2022-10-09T15:13:33.978Z,18.85
2022-10-09T15:16:02.435Z,18.68
2022-10-09T15:18:29.842Z,18.52
2022-10-09T15:20:57.774Z,18.29
2022-10-09T15:23:24.414Z,18.27
2022-10-09T15:25:52.678Z,18.29
2022-10-09T15:28:20.290Z,18.38
2022-10-09T15:30:55.363Z,18.36
2022-10-09T15:33:22.396Z,18.08
2022-10-09T15:35:50.294Z,17.95
2022-10-09T15:38:21.025Z,18.07
2022-10-09T15:40:55.616Z,18.06
2022-10-09T15:43:24.866Z,18.02
2022-10-09T15:45:54.080Z,17.89
2022-10-09T15:48:23.749Z,18.04
2022-10-09T15:50:53.495Z,18.10
2022-10-09T15:53:23.091Z,18.08
2022-10-09T15:55:52.590Z,17.87
2022-10-09T15:58:19.697Z,17.81
2022-10-09T16:00:49.031Z,17.95
2022-10-09T16:03:17.351Z,17.95
2022-10-09T16:05:48.884Z,17.86
2022-10-09T16:08:17.394Z,17.84
2022-10-09T16:10:49.387Z,17.89
2022-10-09T16:13:16.707Z,17.74
2022-10-09T16:15:45.227Z,17.68
2022-10-09T16:18:11.970Z,17.62
2022-10-09T16:20:39.625Z,17.60
2022-10-09T16:23:08.819Z,17.60
2022-10-09T16:25:38.740Z,17.44
2022-10-09T16:28:07.727Z,17.30
2022-10-09T16:30:39.255Z,17.31
2022-10-09T16:33:10.281Z,17.32
2022-10-09T16:35:39.009Z,17.23
2022-10-09T16:38:05.747Z,17.20
2022-10-09T16:40:57.338Z,17.17
2022-10-09T16:43:20.063Z,17.20
2022-10-09T16:45:46.708Z,17.13
2022-10-09T16:48:13.274Z,17.07
2022-10-09T16:50:42.214Z,17.08
2022-10-09T16:53:12.078Z,17.09
2022-10-09T16:55:38.996Z,17.18
2022-10-09T16:58:05.607Z,17.17
2022-10-09T17:00:32.348Z,17.22
2022-10-09T17:02:58.943Z,17.06
2022-10-09T17:05:25.697Z,16.99
2022-10-09T17:07:52.597Z,17.06
2022-10-09T17:10:19.490Z,16.99
2022-10-09T17:12:46.085Z,16.99
2022-10-09T17:15:13.467Z,17.08
2022-10-09T17:17:40.149Z,17.14
2022-10-09T17:20:07.314Z,17.00
2022-10-09T17:22:34.050Z,17.10
2022-10-09T17:25:01.543Z,16.97
2022-10-09T17:27:30.047Z,17.18
2022-10-09T17:29:57.152Z,17.13
2022-10-09T17:32:23.819Z,16.80
2022-10-09T17:34:50.923Z,16.81
2022-10-09T17:37:17.614Z,16.84
2022-10-09T17:39:47.478Z,16.68
2022-10-09T17:42:16.749Z,16.66
2022-10-09T17:44:43.374Z,16.53
2022-10-09T17:47:09.984Z,16.44
2022-10-09T17:49:36.860Z,16.56
2022-10-09T17:52:03.635Z,16.54
2022-10-09T17:54:31.638Z,16.30
2022-10-09T17:57:00.189Z,16.30
2022-10-09T17:59:27.711Z,16.58
2022-10-09T18:01:54.514Z,16.66
2022-10-09T18:04:21.195Z,16.54
2022-10-09T18:06:47.900Z,16.42
2022-10-09T18:09:14.487Z,16.33
2022-10-09T18:11:41.127Z,16.22
2022-10-09T18:14:09.710Z,16.27
2022-10-09T18:16:37.921Z,16.11
2022-10-09T18:19:07.751Z,16.14
2022-10-09T18:21:35.137Z,16.15
2022-10-09T18:24:01.866Z,15.98
2022-10-09T18:26:28.720Z,15.93
2022-10-09T18:28:55.601Z,15.86
2022-10-09T18:31:23.661Z,16.09
2022-10-09T18:33:50.456Z,16.09
2022-10-09T18:36:20.967Z,16.08
2022-10-09T18:38:51.130Z,15.94
2022-10-09T18:41:19.429Z,15.97
2022-10-09T18:43:46.883Z,15.85
2022-10-09T18:46:16.413Z,16.02
2022-10-09T18:48:43.290Z,16.00
2022-10-09T18:51:14.863Z,16.05
2022-10-09T18:53:45.280Z,16.31
2022-10-09T18:56:12.677Z,16.37
2022-10-09T18:58:41.768Z,16.19
2022-10-09T19:01:08.707Z,16.08
2022-10-09T19:03:36.639Z,15.89
2022-10-09T19:06:04.497Z,15.68
2022-10-09T19:08:31.121Z,16.03
2022-10-09T19:10:57.777Z,15.92
2022-10-09T19:13:25.053Z,15.80
2022-10-09T19:15:55.900Z,15.65
2022-10-09T19:18:22.623Z,15.81
2022-10-09T19:20:49.923Z,15.92
2022-10-09T19:23:16.865Z,15.64
2022-10-09T19:25:51.542Z,15.61
2022-10-09T19:28:18.927Z,15.68
2022-10-09T19:30:47.110Z,15.61
2022-10-09T19:33:14.444Z,15.76
2022-10-09T19:35:49.178Z,15.56
2022-10-09T19:38:16.194Z,15.48
2022-10-09T19:40:43.406Z,15.44
2022-10-09T19:43:10.514Z,15.56
2022-10-09T19:45:37.308Z,15.68
2022-10-09T19:48:04.203Z,15.66
2022-10-09T19:50:31.053Z,15.66
2022-10-09T19:52:58.259Z,15.62
2022-10-09T19:55:30.115Z,15.47
2022-10-09T19:57:58.114Z,15.61
2022-10-09T20:00:25.021Z,15.56
2022-10-09T20:02:52.069Z,15.38
2022-10-09T20:05:18.980Z,15.27
2022-10-09T20:07:45.632Z,15.21
2022-10-09T20:10:12.331Z,15.35
2022-10-09T20:12:39.044Z,15.56
2022-10-09T20:15:06.624Z,15.60
2022-10-09T20:17:33.560Z,15.87
2022-10-09T20:20:04.227Z,15.50
2022-10-09T20:22:30.856Z,15.83
2022-10-09T20:24:57.516Z,15.62
2022-10-09T20:27:24.139Z,15.32
2022-10-09T20:29:52.700Z,15.28
2022-10-09T20:32:19.581Z,15.24
2022-10-09T20:34:46.208Z,15.31
2022-10-09T20:37:12.942Z,15.50
2022-10-09T20:39:39.990Z,15.32
2022-10-09T20:42:06.678Z,15.32
2022-10-09T20:44:33.428Z,15.35
2022-10-09T20:47:00.193Z,15.39
2022-10-09T20:49:26.905Z,15.23
2022-10-09T20:51:53.644Z,15.33
2022-10-09T20:54:21.715Z,15.20
2022-10-09T20:56:49.510Z,15.28
2022-10-09T20:59:17.992Z,15.08
2022-10-09T21:01:45.133Z,15.11
2022-10-09T21:04:12.239Z,15.30
2022-10-09T21:06:48.421Z,15.39
2022-10-09T21:09:15.067Z,15.23
2022-10-09T21:11:42.569Z,15.34
2022-10-09T21:14:09.990Z,15.37
2022-10-09T21:16:36.904Z,15.31
2022-10-09T21:19:05.463Z,15.10
2022-10-09T21:21:33.295Z,15.00
2022-10-09T21:24:00.669Z,14.99
2022-10-09T21:26:28.644Z,15.12
2022-10-09T21:28:59.980Z,15.20
2022-10-09T21:31:29.047Z,15.28
2022-10-09T21:33:56.650Z,15.24
2022-10-09T21:37:08.894Z,15.06
2022-10-09T21:39:33.166Z,15.18
2022-10-09T21:42:00.027Z,15.04
2022-10-09T21:44:28.987Z,15.06
2022-10-09T21:46:56.158Z,15.11
2022-10-09T21:49:28.217Z,15.23
2022-10-09T21:51:55.866Z,15.21
2022-10-09T21:54:22.794Z,15.28
2022-10-09T21:56:49.573Z,15.08
2022-10-09T21:59:16.588Z,15.27
2022-10-09T22:01:43.291Z,15.22
2022-10-09T22:04:10.002Z,15.28
2022-10-09T22:06:36.718Z,15.03
2022-10-09T22:09:04.446Z,15.03
2022-10-09T22:11:31.150Z,14.66
2022-10-09T22:13:57.833Z,14.63
2022-10-09T22:16:24.624Z,14.72
2022-10-09T22:18:51.242Z,14.65
2022-10-09T22:21:18.990Z,14.59
2022-10-09T22:23:46.946Z,14.46
2022-10-09T22:26:17.029Z,14.74
2022-10-09T22:28:46.892Z,14.59
2022-10-09T22:31:15.136Z,14.47
2022-10-09T22:33:42.389Z,14.59
2022-10-09T22:36:10.652Z,14.23
2022-10-09T22:38:37.937Z,14.14
2022-10-09T22:41:09.772Z,14.38
2022-10-09T22:43:37.919Z,14.40
2022-10-09T22:46:09.636Z,14.30
2022-10-09T22:48:36.782Z,14.18
2022-10-09T22:51:05.951Z,13.95
2022-10-09T22:53:33.557Z,13.92
2022-10-09T22:56:00.362Z,13.88
2022-10-09T22:58:27.079Z,14.31
2022-10-09T23:00:53.938Z,14.26
2022-10-09T23:03:20.733Z,14.37
2022-10-09T23:05:47.815Z,14.12
2022-10-09T23:08:15.196Z,14.02
2022-10-09T23:10:41.883Z,14.11
2022-10-09T23:13:08.661Z,14.34
2022-10-09T23:15:38.433Z,14.21
2022-10-09T23:18:05.614Z,13.88
2022-10-09T23:20:37.179Z,13.77
2022-10-09T23:23:03.966Z,13.80
2022-10-09T23:25:33.940Z,13.80
2022-10-09T23:28:00.881Z,13.89
2022-10-09T23:30:27.476Z,13.68
2022-10-09T23:32:54.098Z,13.67
2022-10-09T23:35:20.785Z,13.61
2022-10-09T23:37:47.782Z,13.64
2022-10-09T23:40:14.433Z,14.17
2022-10-09T23:42:41.023Z,14.06
2022-10-09T23:45:08.526Z,13.88
2022-10-09T23:47:35.164Z,13.75
2022-10-09T23:50:01.850Z,13.68
2022-10-09T23:52:30.000Z,13.56
2022-10-09T23:54:56.640Z,13.42
2022-10-09T23:57:23.646Z,13.35
2022-10-09T23:59:50.856Z,13.43
